createdAt,value
2023-02-22T00:00:19.368Z,13.63
2023-02-22T00:02:48.441Z,13.10
2023-02-22T00:05:20.012Z,19.57
2023-02-22T00:07:48.396Z,14.90
2023-02-22T00:10:20.396Z,15.73
2023-02-22T00:12:48.911Z,15.43
2023-02-22T00:15:17.475Z,13.73
2023-02-22T00:17:45.080Z,13.60
2023-02-22T00:20:14.164Z,14.90
2023-02-22T00:22:43.671Z,13.70
2023-02-22T00:25:11.265Z,15.73
2023-02-22T00:27:38.780Z,12.73
2023-02-22T00:30:06.974Z,16.13
2023-02-22T00:32:34.679Z,13.32
2023-02-22T00:35:05.516Z,14.03
2023-02-22T00:37:33.604Z,14.27
2023-02-22T00:40:02.510Z,13.50
2023-02-22T00:42:30.102Z,23.30
2023-02-22T00:44:57.648Z,17.37
2023-02-22T00:47:26.417Z,11.20
2023-02-22T00:49:53.939Z,14.33
2023-02-22T00:52:21.523Z,13.40
2023-02-22T00:54:49.534Z,15.83
2023-02-22T00:57:19.180Z,13.73
2023-02-22T00:59:46.808Z,20.03
2023-02-22T01:02:14.417Z,15.60
2023-02-22T01:04:42.045Z,13.70
2023-02-22T01:07:09.720Z,15.63
2023-02-22T01:09:39.594Z,14.63
2023-02-22T01:12:08.107Z,13.53
2023-02-22T01:14:37.343Z,15.37
2023-02-22T01:17:05.325Z,10.65
2023-02-22T01:19:33.014Z,13.73
2023-02-22T01:22:00.559Z,12.53
2023-02-22T01:24:28.098Z,10.97
2023-02-22T01:26:55.616Z,17.20
2023-02-22T01:29:23.216Z,13.67
2023-02-22T01:31:56.141Z,15.33
2023-02-22T01:34:24.736Z,17.30
2023-02-22T01:36:52.391Z,14.27
2023-02-22T01:39:19.912Z,14.60
2023-02-22T01:41:47.692Z,15.97
2023-02-22T01:44:22.738Z,13.27
2023-02-22T01:46:50.333Z,13.97
2023-02-22T01:49:19.405Z,13.73
2023-02-22T01:51:48.506Z,14.32
2023-02-22T01:54:17.587Z,15.90
2023-02-22T01:56:50.486Z,16.73
2023-02-22T01:59:18.882Z,15.20
2023-02-22T02:01:46.582Z,14.97
2023-02-22T02:04:17.010Z,14.80
2023-02-22T02:06:46.407Z,16.17
2023-02-22T02:09:17.060Z,13.27
2023-02-22T02:11:45.222Z,14.65
2023-02-22T02:14:13.145Z,17.10
2023-02-22T02:16:43.487Z,15.90
2023-02-22T02:19:16.614Z,17.80
2023-02-22T02:21:55.015Z,14.30
2023-02-22T02:24:52.828Z,14.97
2023-02-22T02:27:21.091Z,14.20
2023-02-22T02:30:00.025Z,16.27
2023-02-22T02:32:32.898Z,19.03
2023-02-22T02:35:03.100Z,23.47
2023-02-22T02:37:34.265Z,17.47
2023-02-22T02:40:07.716Z,25.50
2023-02-22T02:42:39.128Z,33.37
2023-02-22T02:45:10.544Z,28.27
2023-02-22T02:47:41.579Z,20.40
2023-02-22T02:50:10.909Z,17.17
2023-02-22T02:52:39.144Z,13.77
2023-02-22T02:55:07.734Z,12.53
2023-02-22T02:57:35.257Z,14.77
2023-02-22T03:00:22.219Z,14.80
2023-02-22T03:02:59.032Z,18.37
2023-02-22T03:05:33.102Z,18.67
2023-02-22T03:08:02.358Z,17.77
2023-02-22T03:10:38.879Z,17.97
2023-02-22T03:13:10.119Z,17.97
2023-02-22T03:15:43.616Z,12.90
2023-02-22T03:18:17.764Z,16.17
2023-02-22T03:20:47.617Z,18.07
2023-02-22T03:23:20.202Z,21.00
2023-02-22T03:25:49.480Z,17.37
2023-02-22T03:28:18.590Z,18.17
2023-02-22T03:30:47.822Z,19.27
2023-02-22T03:33:20.481Z,18.83
2023-02-22T03:35:50.365Z,17.47
2023-02-22T03:38:20.161Z,19.47
2023-02-22T03:40:49.742Z,17.77
2023-02-22T03:43:19.672Z,14.33
2023-02-22T03:45:48.367Z,24.70
2023-02-22T03:48:21.328Z,18.20
2023-02-22T03:50:50.022Z,14.80
2023-02-22T03:53:18.502Z,18.60
2023-02-22T03:55:46.708Z,14.33
2023-02-22T03:58:14.924Z,17.67
2023-02-22T04:00:44.609Z,19.27
2023-02-22T04:03:12.497Z,27.83
2023-02-22T04:05:41.395Z,20.63
2023-02-22T04:08:08.898Z,19.77
2023-02-22T04:10:37.931Z,17.40
2023-02-22T04:13:07.032Z,22.90
2023-02-22T04:15:34.576Z,17.10
2023-02-22T04:18:02.106Z,20.73
2023-02-22T04:20:29.794Z,17.73
2023-02-22T04:22:58.826Z,20.00
2023-02-22T04:25:26.343Z,20.03
2023-02-22T04:27:54.305Z,16.73
2023-02-22T04:30:22.029Z,17.87
2023-02-22T04:32:49.716Z,22.53
2023-02-22T04:35:17.381Z,19.77
2023-02-22T04:37:44.899Z,21.47
2023-02-22T04:40:14.002Z,19.40
2023-02-22T04:42:41.598Z,16.40
2023-02-22T04:45:10.541Z,19.27
2023-02-22T04:47:38.295Z,18.77
2023-02-22T04:50:06.612Z,18.87
2023-02-22T04:52:34.201Z,17.67
2023-02-22T04:55:01.809Z,16.80
2023-02-22T04:57:30.732Z,21.13
2023-02-22T04:59:58.258Z,20.70
2023-02-22T05:02:33.218Z,20.37
2023-02-22T05:05:00.865Z,16.43
2023-02-22T05:07:28.590Z,18.07
2023-02-22T05:09:56.186Z,19.30
2023-02-22T05:12:23.646Z,20.47
2023-02-22T05:14:52.960Z,18.87
2023-02-22T05:17:20.539Z,20.80
2023-02-22T05:19:48.827Z,17.17
2023-02-22T05:22:16.440Z,22.37
2023-02-22T05:24:43.975Z,17.77
2023-02-22T05:27:11.830Z,17.53
2023-02-22T05:29:39.603Z,15.77
2023-02-22T05:32:08.520Z,19.80
2023-02-22T05:34:38.416Z,16.60
2023-02-22T05:37:06.014Z,20.23
2023-02-22T05:39:33.542Z,16.40
2023-02-22T05:42:01.107Z,16.27
2023-02-22T05:44:28.988Z,20.23
2023-02-22T05:46:56.527Z,23.67
2023-02-22T05:49:25.398Z,17.57
2023-02-22T05:51:53.090Z,20.40
2023-02-22T05:54:20.607Z,17.43
2023-02-22T05:56:48.104Z,18.03
2023-02-22T05:59:16.064Z,18.17
2023-02-22T06:01:43.619Z,20.13
2023-02-22T06:04:11.181Z,17.07
2023-02-22T06:06:40.022Z,18.90
2023-02-22T06:09:07.566Z,16.97
2023-02-22T06:11:35.141Z,20.30
2023-02-22T06:14:02.720Z,16.90
2023-02-22T06:16:31.876Z,19.20
2023-02-22T06:18:59.787Z,17.63
2023-02-22T06:21:27.296Z,19.73
2023-02-22T06:23:56.836Z,19.33
2023-02-22T06:26:24.319Z,21.93
2023-02-22T06:28:51.989Z,16.70
2023-02-22T06:31:19.761Z,22.83
2023-02-22T06:33:47.436Z,21.40
2023-02-22T06:36:14.947Z,20.20
2023-02-22T06:38:43.045Z,19.17
2023-02-22T06:41:11.966Z,18.53
2023-02-22T06:43:39.451Z,16.80
2023-02-22T06:46:10.284Z,15.47
2023-02-22T06:48:38.075Z,20.57
2023-02-22T06:51:05.672Z,31.40
2023-02-22T06:53:33.132Z,33.40
2023-02-22T06:56:00.845Z,22.60
2023-02-22T06:58:29.685Z,31.87
2023-02-22T07:00:57.076Z,29.80
2023-02-22T07:03:24.667Z,20.53
2023-02-22T07:05:52.175Z,48.20
2023-02-22T07:08:19.651Z,34.40
2023-02-22T07:10:48.456Z,25.73
2023-02-22T07:13:15.944Z,26.07
2023-02-22T07:15:44.930Z,22.00
2023-02-22T07:18:13.221Z,27.45
2023-02-22T07:20:40.771Z,19.37
2023-02-22T07:23:08.160Z,19.73
2023-02-22T07:25:36.001Z,22.00
2023-02-22T07:28:03.515Z,24.20
2023-02-22T07:30:32.194Z,20.37
2023-02-22T07:33:01.935Z,20.23
2023-02-22T07:35:30.106Z,19.73
2023-02-22T07:37:57.955Z,20.40
2023-02-22T07:40:26.404Z,16.43
2023-02-22T07:42:54.933Z,23.60
2023-02-22T07:45:23.201Z,21.03
2023-02-22T07:47:50.661Z,23.73
2023-02-22T07:50:19.846Z,18.47
2023-02-22T07:52:47.876Z,20.58
2023-02-22T07:55:16.735Z,18.73
2023-02-22T07:57:44.157Z,18.70
2023-02-22T08:00:14.376Z,12.93
2023-02-22T08:02:42.217Z,25.70
2023-02-22T08:05:10.748Z,16.73
2023-02-22T08:07:43.258Z,18.17
2023-02-22T08:10:11.369Z,20.27
2023-02-22T08:12:39.271Z,18.27
2023-02-22T08:15:07.656Z,18.70
2023-02-22T08:17:35.061Z,16.98
2023-02-22T08:20:03.206Z,19.73
2023-02-22T08:22:30.697Z,16.65
2023-02-22T08:24:59.474Z,17.63
2023-02-22T08:27:27.751Z,21.02
2023-02-22T08:29:55.699Z,14.23
2023-02-22T08:32:23.777Z,15.85
2023-02-22T08:34:51.419Z,21.30
2023-02-22T08:37:19.429Z,14.68
2023-02-22T08:39:46.926Z,14.50
2023-02-22T08:42:15.765Z,14.82
2023-02-22T08:44:43.423Z,18.48
2023-02-22T08:47:10.943Z,14.25
2023-02-22T08:49:43.197Z,16.75
2023-02-22T08:52:10.830Z,14.93
2023-02-22T08:54:38.278Z,15.15
2023-02-22T08:57:05.998Z,14.57
2023-02-22T08:59:34.796Z,16.33
2023-02-22T09:02:02.972Z,14.52
2023-02-22T09:04:30.465Z,17.38
2023-02-22T09:06:57.932Z,16.38
2023-02-22T09:09:26.084Z,17.83
2023-02-22T09:11:53.517Z,17.23
2023-02-22T09:14:21.098Z,14.18
2023-02-22T09:16:53.689Z,14.90
2023-02-22T09:19:21.417Z,12.20
2023-02-22T09:21:53.222Z,15.98
2023-02-22T09:24:20.834Z,12.77
2023-02-22T09:26:51.960Z,15.57
2023-02-22T09:29:22.752Z,13.73
2023-02-22T09:31:52.198Z,20.58
2023-02-22T09:34:20.179Z,14.15
2023-02-22T09:36:48.264Z,12.48
2023-02-22T09:39:16.862Z,13.32
2023-02-22T09:41:48.079Z,13.82
2023-02-22T09:44:19.429Z,14.30
2023-02-22T09:46:47.814Z,12.50
2023-02-22T09:49:21.058Z,14.15
2023-02-22T09:51:49.926Z,16.92
2023-02-22T09:54:22.693Z,19.08
2023-02-22T09:56:53.746Z,16.20
2023-02-22T09:59:24.089Z,15.07
2023-02-22T10:01:56.444Z,14.40
2023-02-22T10:04:30.427Z,11.43
2023-02-22T10:07:06.083Z,14.35
2023-02-22T10:09:37.726Z,16.05
2023-02-22T10:12:11.964Z,14.55
2023-02-22T10:14:46.342Z,16.73
2023-02-22T10:17:19.329Z,17.13
2023-02-22T10:19:53.759Z,17.65
2023-02-22T10:22:26.766Z,12.45
2023-02-22T10:24:58.051Z,18.80
2023-02-22T10:27:29.263Z,13.77
2023-02-22T10:30:00.174Z,13.20
2023-02-22T10:32:30.155Z,15.70
2023-02-22T10:34:59.395Z,16.15
2023-02-22T10:37:28.224Z,15.30
2023-02-22T10:40:00.013Z,14.85
2023-02-22T10:42:28.169Z,15.95
2023-02-22T10:44:55.702Z,12.50
2023-02-22T10:47:23.652Z,16.27
2023-02-22T10:49:53.563Z,18.08
2023-02-22T10:52:26.032Z,14.75
2023-02-22T10:55:01.053Z,13.13
2023-02-22T10:57:34.731Z,19.02
2023-02-22T11:00:14.420Z,13.82
2023-02-22T11:02:50.675Z,13.00
2023-02-22T11:05:27.467Z,12.38
2023-02-22T11:08:14.838Z,15.57
2023-02-22T11:10:43.427Z,22.05
2023-02-22T11:13:20.602Z,12.45
2023-02-22T11:15:48.277Z,13.27
2023-02-22T11:18:23.778Z,15.52
2023-02-22T11:21:00.030Z,12.63
2023-02-22T11:23:28.928Z,15.05
2023-02-22T11:26:02.675Z,14.45
2023-02-22T11:28:32.821Z,12.15
2023-02-22T11:31:10.225Z,15.57
2023-02-22T11:33:38.436Z,11.43
2023-02-22T11:36:09.385Z,15.02
2023-02-22T11:38:38.763Z,14.63
2023-02-22T11:41:08.310Z,22.55
2023-02-22T11:43:35.942Z,102.53
2023-02-22T11:46:04.726Z,101.03
2023-02-22T11:48:34.754Z,28.67
2023-02-22T11:51:07.352Z,16.85
2023-02-22T11:53:46.100Z,56.45
2023-02-22T11:56:20.582Z,15.57
2023-02-22T11:58:54.067Z,14.07
2023-02-22T12:01:27.918Z,19.25
2023-02-22T12:04:10.473Z,19.23
2023-02-22T12:06:42.680Z,14.02
2023-02-22T12:09:14.624Z,18.45
2023-02-22T12:11:46.126Z,10.68
2023-02-22T12:14:19.083Z,13.88
2023-02-22T12:16:57.541Z,13.02
2023-02-22T12:19:28.702Z,14.88
2023-02-22T12:21:57.923Z,13.77
2023-02-22T12:24:29.607Z,13.13
2023-02-22T12:27:01.444Z,13.35
2023-02-22T12:29:33.081Z,18.30
2023-02-22T12:32:03.657Z,14.10
2023-02-22T12:34:34.025Z,54.97
2023-02-22T12:37:05.096Z,57.60
2023-02-22T12:39:52.280Z,17.38
2023-02-22T12:42:23.112Z,17.88
2023-02-22T12:44:55.454Z,11.85
2023-02-22T12:47:26.815Z,12.13
2023-02-22T12:49:59.372Z,14.30
2023-02-22T12:52:40.993Z,16.38
2023-02-22T12:55:12.320Z,11.77
2023-02-22T12:57:44.400Z,12.18
2023-02-22T13:00:17.895Z,14.90
2023-02-22T13:02:47.082Z,14.57
2023-02-22T13:05:15.382Z,12.68
2023-02-22T13:07:46.645Z,14.18
2023-02-22T13:10:34.884Z,22.10
2023-02-22T13:13:05.422Z,11.95
2023-02-22T13:15:37.918Z,13.18
2023-02-22T13:18:11.621Z,11.00
2023-02-22T13:20:41.837Z,11.85
2023-02-22T13:23:12.280Z,12.13
2023-02-22T13:25:45.278Z,12.57
2023-02-22T13:28:22.893Z,11.48
2023-02-22T13:30:57.037Z,10.80
2023-02-22T13:33:35.303Z,14.88
2023-02-22T13:36:10.468Z,12.15
2023-02-22T13:38:56.904Z,15.23
2023-02-22T13:41:43.045Z,13.93
2023-02-22T13:44:35.512Z,9.82
2023-02-22T13:47:18.329Z,10.85
2023-02-22T13:49:52.578Z,10.80
2023-02-22T13:52:22.133Z,14.85
2023-02-22T13:54:54.365Z,10.77
2023-02-22T13:57:23.255Z,9.93
2023-02-22T14:00:12.294Z,12.32
2023-02-22T14:02:54.623Z,13.25
2023-02-22T14:05:38.920Z,10.68
2023-02-22T14:08:06.716Z,11.27
2023-02-22T14:10:38.986Z,14.40
2023-02-22T14:13:07.662Z,11.73
2023-02-22T14:15:36.626Z,13.50
2023-02-22T14:18:04.920Z,10.95
2023-02-22T14:20:36.040Z,17.45
2023-02-22T14:23:22.412Z,46.35
2023-02-22T14:25:50.696Z,14.25
2023-02-22T14:28:48.745Z,32.55
2023-02-22T14:31:34.512Z,21.27
2023-02-22T14:34:08.402Z,16.00
2023-02-22T14:36:39.571Z,13.05
2023-02-22T14:39:10.393Z,12.85
2023-02-22T14:41:38.924Z,15.90
2023-02-22T14:44:06.619Z,13.60
2023-02-22T14:46:40.462Z,13.43
2023-02-22T14:49:10.684Z,21.38
2023-02-22T14:51:42.700Z,15.15
2023-02-22T14:54:13.239Z,17.13
2023-02-22T14:56:44.316Z,15.30
2023-02-22T14:59:16.091Z,13.30
2023-02-22T15:02:01.529Z,23.38
2023-02-22T15:04:33.607Z,18.35
2023-02-22T15:07:03.294Z,16.58
2023-02-22T15:09:34.909Z,18.90
2023-02-22T15:12:12.930Z,17.45
2023-02-22T15:14:42.037Z,17.80
2023-02-22T15:17:18.443Z,18.02
2023-02-22T15:19:50.409Z,17.20
2023-02-22T15:22:22.229Z,19.27
2023-02-22T15:24:57.190Z,17.55
2023-02-22T15:27:24.749Z,15.52
2023-02-22T15:29:57.998Z,18.35
2023-02-22T15:32:31.978Z,19.55
2023-02-22T15:35:12.567Z,18.40
2023-02-22T15:37:40.424Z,16.58
2023-02-22T15:40:14.481Z,17.55
2023-02-22T15:42:46.255Z,15.13
2023-02-22T15:45:19.901Z,15.50
2023-02-22T15:47:50.397Z,21.35
2023-02-22T15:50:21.432Z,21.80
2023-02-22T15:52:53.017Z,16.85
2023-02-22T15:55:22.720Z,20.17
2023-02-22T15:57:52.296Z,17.75
2023-02-22T16:00:21.334Z,17.88
2023-02-22T16:02:51.177Z,18.80
2023-02-22T16:05:19.233Z,25.48
2023-02-22T16:07:49.043Z,19.38
2023-02-22T16:10:21.415Z,25.30
2023-02-22T16:12:49.250Z,15.13
2023-02-22T16:15:18.354Z,15.88
2023-02-22T16:18:00.008Z,18.50
2023-02-22T16:20:37.208Z,19.45
2023-02-22T16:23:19.618Z,17.98
2023-02-22T16:25:47.283Z,21.13
2023-02-22T16:28:26.052Z,17.33
2023-02-22T16:30:58.249Z,20.02
2023-02-22T16:33:29.699Z,24.65
2023-02-22T16:35:58.749Z,23.00
2023-02-22T16:38:27.551Z,21.50
2023-02-22T16:40:56.143Z,23.88
2023-02-22T16:43:24.491Z,25.88
2023-02-22T16:45:52.878Z,34.92
2023-02-22T16:48:21.520Z,25.50
2023-02-22T16:50:51.291Z,21.25
2023-02-22T16:53:21.916Z,22.63
2023-02-22T16:55:50.323Z,20.52
2023-02-22T16:58:18.966Z,27.77
2023-02-22T17:00:46.774Z,28.58
2023-02-22T17:03:16.332Z,28.63
2023-02-22T17:05:45.284Z,29.77
2023-02-22T17:08:13.323Z,30.55
2023-02-22T17:10:42.297Z,27.55
2023-02-22T17:13:21.822Z,71.50
2023-02-22T17:15:54.875Z,57.72
2023-02-22T17:18:23.490Z,41.78
2023-02-22T17:20:51.726Z,27.08
2023-02-22T17:23:20.008Z,28.67
2023-02-22T17:25:50.443Z,25.00
2023-02-22T17:28:18.117Z,27.60
2023-02-22T17:30:48.867Z,28.27
2023-02-22T17:33:17.523Z,23.80
2023-02-22T17:35:47.082Z,22.63
2023-02-22T17:38:18.450Z,23.42
2023-02-22T17:40:48.074Z,22.42
2023-02-22T17:43:19.464Z,24.17
2023-02-22T17:45:47.339Z,23.70
2023-02-22T17:48:15.379Z,26.33
2023-02-22T17:50:45.032Z,29.25
2023-02-22T17:53:12.554Z,20.67
2023-02-22T17:55:40.608Z,23.42
2023-02-22T17:58:14.691Z,23.98
2023-02-22T18:00:46.042Z,37.67
2023-02-22T18:03:16.402Z,66.03
2023-02-22T18:05:46.172Z,90.43
2023-02-22T18:08:13.791Z,30.27
2023-02-22T18:10:42.332Z,31.05
2023-02-22T18:13:09.993Z,21.60
2023-02-22T18:15:40.406Z,20.17
2023-02-22T18:18:09.669Z,20.63
2023-02-22T18:20:39.117Z,20.85
2023-02-22T18:23:08.310Z,19.60
2023-02-22T18:25:36.423Z,22.40
2023-02-22T18:28:04.794Z,25.40
2023-02-22T18:30:32.731Z,26.38
2023-02-22T18:33:00.581Z,26.80
2023-02-22T18:35:29.518Z,24.95
2023-02-22T18:37:57.068Z,34.65
2023-02-22T18:40:24.667Z,26.10
2023-02-22T18:42:52.288Z,26.52
2023-02-22T18:45:21.152Z,23.80
2023-02-22T18:47:48.702Z,24.92
2023-02-22T18:50:17.204Z,27.33
2023-02-22T18:52:46.324Z,32.80
2023-02-22T18:55:15.119Z,32.80
2023-02-22T18:57:42.782Z,31.65
2023-02-22T19:00:12.193Z,28.25
2023-02-22T19:02:43.494Z,27.00
2023-02-22T19:05:11.658Z,33.08
2023-02-22T19:07:39.672Z,23.65
2023-02-22T19:10:08.652Z,27.80
2023-02-22T19:12:36.200Z,29.17
2023-02-22T19:15:03.912Z,26.58
2023-02-22T19:17:32.710Z,31.27
2023-02-22T19:20:00.306Z,25.15
2023-02-22T19:22:32.745Z,28.15
2023-02-22T19:25:03.746Z,28.00
2023-02-22T19:27:34.193Z,25.35
2023-02-22T19:30:03.791Z,23.98
2023-02-22T19:32:33.711Z,35.40
2023-02-22T19:35:07.028Z,37.95
2023-02-22T19:38:06.262Z,44.78
2023-02-22T19:40:42.468Z,33.28
2023-02-22T19:43:11.508Z,35.45
2023-02-22T19:45:40.178Z,28.58
2023-02-22T19:48:07.660Z,28.33
2023-02-22T19:50:35.151Z,23.35
2023-02-22T19:53:02.996Z,28.83
2023-02-22T19:55:32.330Z,25.70
2023-02-22T19:58:00.181Z,26.10
2023-02-22T20:00:35.395Z,31.00
2023-02-22T20:03:06.691Z,22.98
2023-02-22T20:05:37.192Z,27.58
2023-02-22T20:08:04.953Z,27.52
2023-02-22T20:10:34.317Z,28.00
2023-02-22T20:13:02.571Z,27.60
2023-02-22T20:15:31.470Z,26.85
2023-02-22T20:18:00.162Z,28.70
2023-02-22T20:20:30.329Z,23.05
2023-02-22T20:22:58.300Z,19.27
2023-02-22T20:25:25.939Z,24.77
2023-02-22T20:27:53.441Z,28.13
2023-02-22T20:30:23.046Z,30.02
2023-02-22T20:32:52.092Z,37.55
2023-02-22T20:35:19.749Z,33.95
2023-02-22T20:37:47.305Z,32.20
2023-02-22T20:40:14.882Z,32.85
2023-02-22T20:42:44.323Z,31.40
2023-02-22T20:45:12.100Z,31.02
2023-02-22T20:47:39.665Z,27.95
2023-02-22T20:50:09.884Z,30.80
2023-02-22T20:52:37.387Z,33.90
2023-02-22T20:55:06.173Z,33.17
2023-02-22T20:57:33.718Z,30.35
2023-02-22T21:00:01.243Z,27.55
2023-02-22T21:02:28.700Z,28.52
2023-02-22T21:04:56.211Z,30.42
2023-02-22T21:07:25.010Z,33.97
2023-02-22T21:09:52.515Z,43.83
2023-02-22T21:12:19.997Z,35.80
2023-02-22T21:14:47.455Z,32.42
2023-02-22T21:17:15.047Z,39.35
2023-02-22T21:19:42.612Z,42.08
2023-02-22T21:22:10.075Z,30.42
2023-02-22T21:24:38.941Z,34.03
2023-02-22T21:27:06.919Z,37.30
2023-02-22T21:29:35.927Z,32.15
2023-02-22T21:32:03.866Z,38.22
2023-02-22T21:34:31.759Z,29.23
2023-02-22T21:36:59.249Z,40.42
2023-02-22T21:39:28.700Z,40.85
2023-02-22T21:42:00.101Z,33.30
2023-02-22T21:44:28.261Z,41.20
2023-02-22T21:46:57.722Z,33.80
2023-02-22T21:49:25.502Z,33.67
2023-02-22T21:51:53.389Z,34.75
2023-02-22T21:54:20.928Z,34.38
2023-02-22T21:56:48.681Z,31.05
2023-02-22T21:59:20.100Z,32.10
2023-02-22T22:01:49.854Z,36.22
2023-02-22T22:04:19.331Z,28.75
2023-02-22T22:06:49.740Z,30.02
2023-02-22T22:09:23.193Z,34.60
2023-02-22T22:11:54.678Z,31.55
2023-02-22T22:14:24.443Z,34.58
2023-02-22T22:16:53.483Z,33.17
2023-02-22T22:19:25.429Z,38.67
2023-02-22T22:21:53.998Z,39.15
2023-02-22T22:24:22.385Z,34.15
2023-02-22T22:26:54.696Z,40.63
2023-02-22T22:29:24.529Z,37.70
2023-02-22T22:31:52.405Z,38.35
2023-02-22T22:34:20.024Z,37.70
2023-02-22T22:36:48.098Z,35.10
2023-02-22T22:39:20.934Z,37.13
2023-02-22T22:41:49.089Z,36.22
2023-02-22T22:44:22.130Z,37.67
2023-02-22T22:46:53.651Z,39.65
2023-02-22T22:49:25.506Z,34.30
2023-02-22T22:51:53.452Z,40.72
2023-02-22T22:54:20.924Z,38.60
2023-02-22T22:56:48.482Z,43.22
2023-02-22T22:59:16.053Z,36.55
2023-02-22T23:01:45.296Z,31.65
2023-02-22T23:04:16.227Z,32.65
2023-02-22T23:06:45.279Z,37.47
2023-02-22T23:09:15.256Z,34.60
2023-02-22T23:11:45.011Z,31.58
2023-02-22T23:14:13.384Z,37.70
2023-02-22T23:16:42.183Z,38.75
2023-02-22T23:19:10.143Z,38.00
2023-02-22T23:21:39.436Z,36.63
2023-02-22T23:24:07.281Z,37.35
2023-02-22T23:26:35.207Z,39.40
2023-02-22T23:29:03.288Z,33.50
2023-02-22T23:31:32.053Z,31.92
2023-02-22T23:34:00.109Z,37.95
2023-02-22T23:36:27.984Z,36.47
2023-02-22T23:38:56.808Z,36.78
2023-02-22T23:41:28.102Z,32.20
2023-02-22T23:43:55.587Z,32.95
2023-02-22T23:46:23.136Z,41.05
2023-02-22T23:48:51.485Z,40.65
2023-02-22T23:51:25.170Z,37.97
2023-02-22T23:53:55.559Z,33.88
2023-02-22T23:56:25.027Z,36.67
2023-02-22T23:58:52.518Z,41.08
